sensor_id;sensor_type;location;lat;lon;timestamp;pressure;altitude;pressure_sealevel;temperature;humidity
76687;BME280;65615;47.378;19.344;2023-03-03T05:31:59;100304.50;;;3.39;100.00
76687;BME280;65615;47.378;19.344;2023-03-03T05:36:02;100304.50;;;3.39;100.00
76687;BME280;65615;47.378;19.344;2023-03-03T05:40:06;100310.16;;;2.97;100.00
76687;BME280;65615;47.378;19.344;2023-03-03T05:44:10;100310.50;;;3.28;100.00
76687;BME280;65615;47.378;19.344;2023-03-03T05:48:13;100312.81;;;3.57;100.00
76687;BME280;65615;47.378;19.344;2023-03-03T05:52:17;100321.19;;;3.73;100.00
76687;BME280;65615;47.378;19.344;2023-03-03T05:56:20;100321.06;;;3.51;100.00
76687;BME280;65615;47.378;19.344;2023-03-03T06:00:24;100322.53;;;3.55;100.00
76687;BME280;65615;47.378;19.344;2023-03-03T06:04:27;100321.28;;;3.47;100.00
76687;BME280;65615;47.378;19.344;2023-03-03T06:08:30;100327.31;;;3.61;100.00
76687;BME280;65615;47.378;19.344;2023-03-03T06:12:34;100331.69;;;3.60;100.00
76687;BME280;65615;47.378;19.344;2023-03-03T06:16:37;100329.63;;;3.53;100.00
76687;BME280;65615;47.378;19.344;2023-03-03T06:20:40;100340.84;;;3.66;100.00
76687;BME280;65615;47.378;19.344;2023-03-03T06:24:43;100339.53;;;3.60;100.00
76687;BME280;65615;47.378;19.344;2023-03-03T06:28:47;100347.31;;;3.73;100.00
76687;BME280;65615;47.378;19.344;2023-03-03T06:32:51;100352.00;;;3.68;100.00
76687;BME280;65615;47.378;19.344;2023-03-03T06:36:54;100357.06;;;3.82;100.00
76687;BME280;65615;47.378;19.344;2023-03-03T06:40:58;100357.06;;;3.82;100.00
76687;BME280;65615;47.378;19.344;2023-03-03T06:45:04;100349.28;;;3.69;100.00
76687;BME280;65615;47.378;19.344;2023-03-03T06:49:06;100342.84;;;3.86;100.00
76687;BME280;65615;47.378;19.344;2023-03-03T06:53:14;100352.59;;;3.95;100.00
76687;BME280;65615;47.378;19.344;2023-03-03T06:57:36;100344.28;;;4.24;100.00
76687;BME280;65615;47.378;19.344;2023-03-03T07:01:43;100348.41;;;4.27;100.00
76687;BME280;65615;47.378;19.344;2023-03-03T07:05:47;100362.50;;;4.48;100.00
76687;BME280;65615;47.378;19.344;2023-03-03T07:09:56;100367.41;;;4.64;100.00
76687;BME280;65615;47.378;19.344;2023-03-03T07:14:10;100360.66;;;4.72;100.00
76687;BME280;65615;47.378;19.344;2023-03-03T07:18:57;100369.44;;;4.82;100.00
76687;BME280;65615;47.378;19.344;2023-03-03T07:23:22;100370.88;;;4.97;100.00
76687;BME280;65615;47.378;19.344;2023-03-03T07:27:49;100381.12;;;5.23;100.00
76687;BME280;65615;47.378;19.344;2023-03-03T07:36:34;100385.00;;;5.39;100.00
76687;BME280;65615;47.378;19.344;2023-03-03T07:40:38;100383.72;;;5.34;100.00
76687;BME280;65615;47.378;19.344;2023-03-03T07:44:55;100384.59;;;5.66;100.00
76687;BME280;65615;47.378;19.344;2023-03-03T07:49:36;100381.00;;;5.78;100.00
76687;BME280;65615;47.378;19.344;2023-03-03T07:53:47;100376.63;;;6.10;100.00
76687;BME280;65615;47.378;19.344;2023-03-03T07:58:37;100380.16;;;6.20;100.00
76687;BME280;65615;47.378;19.344;2023-03-03T08:03:09;100382.47;;;6.34;99.69
76687;BME280;65615;47.378;19.344;2023-03-03T08:07:51;100391.81;;;6.27;98.76
76687;BME280;65615;47.378;19.344;2023-03-03T08:12:31;100385.16;;;6.23;99.00
76687;BME280;65615;47.378;19.344;2023-03-03T08:16:37;100395.50;;;6.45;98.55
76687;BME280;65615;47.378;19.344;2023-03-03T08:20:47;100389.78;;;6.20;99.42
76687;BME280;65615;47.378;19.344;2023-03-03T08:24:56;100390.34;;;6.34;99.69
76687;BME280;65615;47.378;19.344;2023-03-03T08:29:00;100382.94;;;6.39;98.75
76687;BME280;65615;47.378;19.344;2023-03-03T08:33:12;100385.16;;;6.64;97.72
76687;BME280;65615;47.378;19.344;2023-03-03T08:37:17;100379.44;;;6.80;97.02
76687;BME280;65615;47.378;19.344;2023-03-03T08:41:31;100381.53;;;6.86;96.40
76687;BME280;65615;47.378;19.344;2023-03-03T08:45:35;100381.12;;;7.21;94.94
76687;BME280;65615;47.378;19.344;2023-03-03T08:49:42;100374.91;;;7.22;94.65
76687;BME280;65615;47.378;19.344;2023-03-03T08:53:46;100391.72;;;7.10;94.94
76687;BME280;65615;47.378;19.344;2023-03-03T08:57:55;100380.78;;;7.35;94.30
76687;BME280;65615;47.378;19.344;2023-03-03T09:02:01;100388.84;;;7.62;93.39
76687;BME280;65615;47.378;19.344;2023-03-03T09:06:16;100388.06;;;7.71;92.40
76687;BME280;65615;47.378;19.344;2023-03-03T09:10:30;100387.75;;;7.64;92.31
76687;BME280;65615;47.378;19.344;2023-03-03T09:14:53;100382.25;;;7.77;91.34
76687;BME280;65615;47.378;19.344;2023-03-03T09:19:05;100378.09;;;7.94;91.38
76687;BME280;65615;47.378;19.344;2023-03-03T09:23:37;100374.25;;;8.26;90.24
76687;BME280;65615;47.378;19.344;2023-03-03T09:28:02;100374.41;;;8.34;88.29
76687;BME280;65615;47.378;19.344;2023-03-03T09:32:36;100375.56;;;8.88;86.69
76687;BME280;65615;47.378;19.344;2023-03-03T09:36:47;100382.16;;;9.01;86.02
76687;BME280;65615;47.378;19.344;2023-03-03T09:46:51;100384.34;;;9.06;85.37
76687;BME280;65615;47.378;19.344;2023-03-03T09:56:04;100383.97;;;9.28;83.39
76687;BME280;65615;47.378;19.344;2023-03-03T10:04:58;100383.37;;;9.34;83.91
76687;BME280;65615;47.378;19.344;2023-03-03T10:27:40;100363.13;;;9.79;80.45
76687;BME280;65615;47.378;19.344;2023-03-03T10:45:41;100352.34;;;10.43;77.77
76687;BME280;65615;47.378;19.344;2023-03-03T10:50:03;100349.03;;;10.41;77.18
76687;BME280;65615;47.378;19.344;2023-03-03T10:54:45;100343.19;;;10.81;75.13
76687;BME280;65615;47.378;19.344;2023-03-03T11:04:10;100343.00;;;10.82;75.13
76687;BME280;65615;47.378;19.344;2023-03-03T11:08:40;100334.03;;;11.01;75.40
76687;BME280;65615;47.378;19.344;2023-03-03T11:17:24;100324.81;;;13.38;64.67
76687;BME280;65615;47.378;19.344;2023-03-03T11:21:49;100321.28;;;13.46;62.60
76687;BME280;65615;47.378;19.344;2023-03-03T11:26:18;100314.66;;;13.73;60.61
76687;BME280;65615;47.378;19.344;2023-03-03T11:36:26;100310.19;;;14.85;56.79
76687;BME280;65615;47.378;19.344;2023-03-03T11:44:44;100301.09;;;14.79;56.55
76687;BME280;65615;47.378;19.344;2023-03-03T11:49:35;100296.09;;;15.34;55.43
76687;BME280;65615;47.378;19.344;2023-03-03T11:54:18;100290.63;;;14.63;57.06
76687;BME280;65615;47.378;19.344;2023-03-03T11:58:30;100284.22;;;15.01;56.68
76687;BME280;65615;47.378;19.344;2023-03-03T12:16:03;100280.66;;;17.32;48.76
76687;BME280;65615;47.378;19.344;2023-03-03T12:20:27;100263.81;;;17.25;47.66
76687;BME280;65615;47.378;19.344;2023-03-03T12:38:04;100255.03;;;17.44;48.14
76687;BME280;65615;47.378;19.344;2023-03-03T12:47:14;100246.84;;;17.45;47.27
76687;BME280;65615;47.378;19.344;2023-03-03T12:51:20;100250.72;;;16.95;48.22
76687;BME280;65615;47.378;19.344;2023-03-03T12:56:03;100250.00;;;17.15;47.83
76687;BME280;65615;47.378;19.344;2023-03-03T13:04:47;100242.41;;;17.85;46.56
76687;BME280;65615;47.378;19.344;2023-03-03T13:08:59;100237.22;;;17.51;45.37
76687;BME280;65615;47.378;19.344;2023-03-03T13:30:02;100227.50;;;16.89;47.99
76687;BME280;65615;47.378;19.344;2023-03-03T13:34:11;100221.72;;;16.45;48.16
76687;BME280;65615;47.378;19.344;2023-03-03T13:38:19;100224.34;;;14.91;52.15
76687;BME280;65615;47.378;19.344;2023-03-03T13:42:37;100220.50;;;14.49;53.55
76687;BME280;65615;47.378;19.344;2023-03-03T14:07:42;100200.22;;;16.19;48.95
76687;BME280;65615;47.378;19.344;2023-03-03T14:20:38;100189.00;;;15.32;51.48
76687;BME280;65615;47.378;19.344;2023-03-03T14:33:30;100173.38;;;14.29;55.81
76687;BME280;65615;47.378;19.344;2023-03-03T14:37:44;100178.66;;;13.17;59.48
76687;BME280;65615;47.378;19.344;2023-03-03T14:41:48;100171.63;;;13.02;61.06
76687;BME280;65615;47.378;19.344;2023-03-03T14:45:54;100164.75;;;12.54;62.91
76687;BME280;65615;47.378;19.344;2023-03-03T14:50:03;100168.44;;;13.14;60.94
76687;BME280;65615;47.378;19.344;2023-03-03T14:54:33;100162.53;;;13.04;61.35
76687;BME280;65615;47.378;19.344;2023-03-03T14:58:42;100164.47;;;13.55;59.40
76687;BME280;65615;47.378;19.344;2023-03-03T15:07:27;100150.47;;;14.13;57.72
76687;BME280;65615;47.378;19.344;2023-03-03T15:11:32;100167.34;;;12.62;62.67
76687;BME280;65615;47.378;19.344;2023-03-03T15:24:47;100155.91;;;12.23;65.74
76687;BME280;65615;47.378;19.344;2023-03-03T15:37:56;100167.41;;;11.67;68.35
76687;BME280;65615;47.378;19.344;2023-03-03T15:42:14;100165.56;;;11.35;69.53
76687;BME280;65615;47.378;19.344;2023-03-03T15:50:43;100155.56;;;10.81;72.76
76687;BME280;65615;47.378;19.344;2023-03-03T16:03:46;100180.06;;;10.15;76.89
76687;BME280;65615;47.378;19.344;2023-03-03T16:33:26;100205.47;;;9.20;84.30
76687;BME280;65615;47.378;19.344;2023-03-03T16:37:35;100196.53;;;9.13;84.77
76687;BME280;65615;47.378;19.344;2023-03-03T16:46:21;100208.31;;;8.92;86.10
76687;BME280;65615;47.378;19.344;2023-03-03T16:50:37;100225.88;;;8.74;87.08
76687;BME280;65615;47.378;19.344;2023-03-03T16:54:46;100233.97;;;8.63;87.87
76687;BME280;65615;47.378;19.344;2023-03-03T17:07:53;100243.91;;;8.22;89.38
76687;BME280;65615;47.378;19.344;2023-03-03T17:12:24;100244.91;;;8.12;90.40
76687;BME280;65615;47.378;19.344;2023-03-03T17:16:49;100248.81;;;7.98;91.35
